Time;durP1;ratioP1;P1;durP2;ratioP2;P2;SDS_P1;SDS_P2;PMS_P1;PMS_P2;Temp;Humidity;BMP_temperature;BMP_pressure;BME280_temperature;BME280_humidity;BME280_pressure;Samples;Min_cycle;Max_cycle;Signal;HPM_P1;HPM_P2
2023/04/23 00:01:50;;;;;;;;;;;;;;;7.95;66.73;98617.15;131512;1280;5377138;-66
2023/04/23 00:04:53;;;;;;;;;;;;;;;7.95;66.53;98616.81;135514;1263;22513;-66
2023/04/23 00:07:58;;;;;;;;;;;;;;;7.93;66.67;98616.55;135536;1279;22511;-65
2023/04/23 00:11:02;;;;;;;;;;;;;;;7.86;67.23;98611.71;135555;1279;22497;-68
2023/04/23 00:14:14;;;;;;;;;;;;;;;7.71;67.90;98606.25;135506;1279;22515;-67
2023/04/23 00:17:18;;;;;;;;;;;;;;;7.67;67.96;98613.04;135558;1279;22511;-65
2023/04/23 00:20:21;;;;;;;;;;;;;;;7.64;68.01;98606.75;135519;1279;24054;-67
2023/04/23 00:23:25;;;;;;;;;;;;;;;7.62;68.48;98606.00;135539;1279;22516;-65
2023/04/23 00:26:27;;;;;;;;;;;;;;;7.57;68.61;98604.67;135497;1279;22511;-66
2023/04/23 00:29:30;;;;;;;;;;;;;;;7.55;68.80;98606.91;135557;1279;22544;-67
2023/04/23 00:32:33;;;;;;;;;;;;;;;7.53;68.93;98605.44;135535;1279;24477;-67
2023/04/23 00:35:36;;;;;;;;;;;;;;;7.50;69.34;98603.16;135490;1279;22501;-66
2023/04/23 00:38:39;;;;;;;;;;;;;;;7.46;69.07;98598.11;135484;1279;22538;-67
2023/04/23 00:41:43;;;;;;;;;;;;;;;7.38;69.29;98593.16;135535;1279;22559;-66
2023/04/23 00:44:46;;;;;;;;;;;;;;;7.33;69.65;98596.55;135517;1279;22510;-66
2023/04/23 00:47:49;;;;;;;;;;;;;;;7.27;70.23;98596.86;135523;1279;22520;-66
2023/04/23 00:50:52;;;;;;;;;;;;;;;7.23;70.43;98596.00;135549;1262;22507;-68
2023/04/23 00:53:55;;;;;;;;;;;;;;;7.19;70.61;98596.89;135525;1257;24336;-65
2023/04/23 00:56:58;;;;;;;;;;;;;;;7.17;70.41;98596.66;135421;1279;23788;-68
2023/04/23 01:00:02;;;;;;;;;;;;;;;7.11;70.86;98596.25;135509;1279;22523;-68
2023/04/23 01:03:05;;;;;;;;;;;;;;;7.05;71.10;98597.43;135571;1279;22611;-66
2023/04/23 01:06:08;;;;;;;;;;;;;;;7.04;71.23;98598.85;135556;1262;22516;-66
2023/04/23 01:09:11;;;;;;;;;;;;;;;7.04;71.41;98596.44;135506;1279;22520;-65
2023/04/23 01:12:13;;;;;;;;;;;;;;;7.07;71.27;98597.33;135555;1279;22511;-66
2023/04/23 01:15:17;;;;;;;;;;;;;;;7.04;71.28;98596.08;135512;1280;22520;-65
2023/04/23 01:18:20;;;;;;;;;;;;;;;7.03;71.32;98600.11;135544;1279;22504;-66
2023/04/23 01:21:23;;;;;;;;;;;;;;;6.93;71.91;98599.05;135533;1279;22500;-66
2023/04/23 01:24:26;;;;;;;;;;;;;;;6.88;72.36;98599.11;135514;1279;22503;-66
2023/04/23 01:27:29;;;;;;;;;;;;;;;6.90;72.33;98598.35;135549;1279;25348;-66
2023/04/23 01:30:32;;;;;;;;;;;;;;;6.86;72.34;98595.76;135525;1279;22522;-66
2023/04/23 01:33:35;;;;;;;;;;;;;;;6.89;71.99;98595.25;135514;1279;22627;-65
2023/04/23 01:36:39;;;;;;;;;;;;;;;6.83;72.76;98597.48;135581;1279;22518;-65
2023/04/23 01:39:42;;;;;;;;;;;;;;;6.79;73.35;98593.84;135513;1279;22526;-66
2023/04/23 01:42:44;;;;;;;;;;;;;;;6.75;73.93;98595.61;135411;1279;22521;-66
2023/04/23 01:45:48;;;;;;;;;;;;;;;6.69;74.83;98592.05;135475;1279;22599;-65
2023/04/23 01:48:51;;;;;;;;;;;;;;;6.67;74.95;98592.70;135441;1279;22715;-65
2023/04/23 01:51:54;;;;;;;;;;;;;;;6.68;75.16;98590.37;135510;1278;22571;-65
2023/04/23 01:54:58;;;;;;;;;;;;;;;6.68;75.12;98588.48;135734;1279;22527;-66
2023/04/23 01:58:00;;;;;;;;;;;;;;;6.63;75.38;98589.41;135793;1278;22635;-66
2023/04/23 02:01:04;;;;;;;;;;;;;;;6.63;74.66;98589.77;135801;1278;22500;-65
2023/04/23 02:04:07;;;;;;;;;;;;;;;6.56;75.15;98589.23;135778;1278;22516;-66
2023/04/23 02:07:11;;;;;;;;;;;;;;;6.59;75.35;98590.65;135760;1278;25381;-66
2023/04/23 02:10:14;;;;;;;;;;;;;;;6.55;75.86;98590.11;135742;1278;22508;-66
2023/04/23 02:13:18;;;;;;;;;;;;;;;6.47;76.13;98593.66;135779;1278;22514;-65
2023/04/23 02:16:23;;;;;;;;;;;;;;;6.46;77.47;98588.48;135759;1278;22567;-67
2023/04/23 02:19:27;;;;;;;;;;;;;;;6.49;76.66;98583.98;135754;1279;22538;-64
2023/04/23 02:22:31;;;;;;;;;;;;;;;6.49;76.15;98581.58;135774;1278;22500;-66
2023/04/23 02:25:37;;;;;;;;;;;;;;;6.49;76.27;98580.33;135757;1278;22571;-66
2023/04/23 02:28:40;;;;;;;;;;;;;;;6.46;76.13;98577.37;135705;1278;22507;-66
2023/04/23 02:31:43;;;;;;;;;;;;;;;6.43;76.40;98576.66;135836;1278;22503;-67
2023/04/23 02:34:46;;;;;;;;;;;;;;;6.40;76.52;98573.64;135749;1278;22542;-68
2023/04/23 02:37:49;;;;;;;;;;;;;;;6.37;76.38;98573.97;135592;1278;22536;-66
2023/04/23 02:40:52;;;;;;;;;;;;;;;6.35;76.85;98571.63;135773;1278;22507;-68
2023/04/23 02:43:56;;;;;;;;;;;;;;;6.32;77.41;98575.41;135740;1278;22575;-65
2023/04/23 02:46:59;;;;;;;;;;;;;;;6.27;78.14;98575.67;135788;1278;22523;-67
2023/04/23 02:50:04;;;;;;;;;;;;;;;6.12;77.75;98578.25;135724;1278;22514;-67
2023/04/23 02:53:08;;;;;;;;;;;;;;;6.04;78.69;98578.65;135763;1278;22518;-64
2023/04/23 02:56:11;;;;;;;;;;;;;;;6.00;78.89;98575.33;135764;1278;22638;-65
2023/04/23 02:59:13;;;;;;;;;;;;;;;6.05;78.43;98575.13;135681;1278;22506;-69
2023/04/23 03:02:17;;;;;;;;;;;;;;;6.07;78.80;98577.45;135795;1278;22500;-66
2023/04/23 03:05:20;;;;;;;;;;;;;;;6.10;78.67;98579.25;135743;1278;22514;-66
2023/04/23 03:08:26;;;;;;;;;;;;;;;6.13;78.52;98574.73;135795;1278;22504;-66
2023/04/23 03:11:30;;;;;;;;;;;;;;;6.16;78.81;98575.83;135772;1278;22573;-66
2023/04/23 03:14:32;;;;;;;;;;;;;;;6.10;78.67;98576.63;135732;1278;22648;-66
2023/04/23 03:17:35;;;;;;;;;;;;;;;6.01;79.24;98575.99;135599;1278;24374;-67
2023/04/23 03:20:38;;;;;;;;;;;;;;;6.00;79.65;98574.64;135756;1278;22507;-66
2023/04/23 03:23:41;;;;;;;;;;;;;;;6.01;79.90;98580.14;135751;1278;22522;-66
2023/04/23 03:26:44;;;;;;;;;;;;;;;6.01;81.54;98578.23;135771;1278;22540;-67
2023/04/23 03:29:47;;;;;;;;;;;;;;;5.97;81.88;98587.08;135560;1269;22570;-66
2023/04/23 03:32:53;;;;;;;;;;;;;;;5.83;83.71;98590.14;135827;1278;22500;-66
2023/04/23 03:35:58;;;;;;;;;;;;;;;5.82;81.95;98580.50;135735;1278;22516;-66
2023/04/23 03:39:01;;;;;;;;;;;;;;;5.90;81.47;98578.38;135772;1278;22514;-66
2023/04/23 03:42:04;;;;;;;;;;;;;;;6.01;81.62;98579.14;135743;1278;22490;-67
2023/04/23 03:45:12;;;;;;;;;;;;;;;6.01;81.35;98574.64;135755;1278;22496;-66
2023/04/23 03:48:15;;;;;;;;;;;;;;;6.02;81.20;98571.60;135775;1278;22496;-68
2023/04/23 03:51:19;;;;;;;;;;;;;;;6.12;80.97;98572.86;135751;1278;22632;-66
2023/04/23 03:54:23;;;;;;;;;;;;;;;6.27;80.88;98568.03;135730;1278;22517;-65
2023/04/23 03:57:26;;;;;;;;;;;;;;;6.43;80.91;98573.00;135733;1278;22500;-65
2023/04/23 04:00:30;;;;;;;;;;;;;;;6.60;80.85;98569.56;135651;1278;22500;-66
2023/04/23 04:03:33;;;;;;;;;;;;;;;6.84;80.06;98566.51;135710;1278;22494;-66
2023/04/23 04:06:37;;;;;;;;;;;;;;;7.05;79.91;98565.63;135743;1278;24553;-65
2023/04/23 04:09:40;;;;;;;;;;;;;;;7.22;79.21;98568.58;135763;1278;24227;-65
2023/04/23 04:12:46;;;;;;;;;;;;;;;7.36;78.56;98569.92;135752;1278;22511;-65
2023/04/23 04:15:49;;;;;;;;;;;;;;;7.49;78.33;98572.23;135775;1278;22507;-66
2023/04/23 04:18:52;;;;;;;;;;;;;;;7.63;77.95;98573.05;135740;1278;22531;-66
2023/04/23 04:21:55;;;;;;;;;;;;;;;7.76;77.98;98572.20;135710;1278;22557;-67
2023/04/23 04:24:59;;;;;;;;;;;;;;;7.96;77.81;98570.98;135696;1278;22527;-66
2023/04/23 04:28:02;;;;;;;;;;;;;;;8.14;77.58;98566.00;135726;1278;22968;-66
2023/04/23 04:31:05;;;;;;;;;;;;;;;8.38;76.86;98568.48;135686;1278;22584;-66
2023/04/23 04:34:09;;;;;;;;;;;;;;;8.62;76.81;98568.56;135774;1278;22501;-67
2023/04/23 04:37:12;;;;;;;;;;;;;;;8.87;76.24;98563.27;135726;1278;22606;-66
2023/04/23 04:40:16;;;;;;;;;;;;;;;9.08;76.10;98565.02;135784;1278;22560;-69
2023/04/23 04:43:19;;;;;;;;;;;;;;;9.29;75.72;98566.43;135780;1278;22516;-65
2023/04/23 04:46:22;;;;;;;;;;;;;;;9.55;74.50;98564.16;135649;1278;22540;-66
2023/04/23 04:49:25;;;;;;;;;;;;;;;9.81;73.96;98565.35;135765;1278;22542;-66
2023/04/23 04:52:28;;;;;;;;;;;;;;;10.06;73.45;98558.95;135699;1278;22513;-66
2023/04/23 04:55:32;;;;;;;;;;;;;;;10.34;72.94;98563.64;135755;1278;22500;-65
2023/04/23 04:58:35;;;;;;;;;;;;;;;10.60;72.63;98565.68;135727;1278;24265;-66
2023/04/23 05:01:38;;;;;;;;;;;;;;;10.82;72.15;98569.27;135655;1278;22555;-66
2023/04/23 05:04:42;;;;;;;;;;;;;;;11.08;71.70;98569.47;135758;1278;22496;-66
2023/04/23 05:07:48;;;;;;;;;;;;;;;11.40;70.80;98572.95;135758;1278;24218;-66
2023/04/23 05:10:52;;;;;;;;;;;;;;;11.63;70.00;98574.20;135760;1278;22631;-67
2023/04/23 05:13:56;;;;;;;;;;;;;;;11.88;69.49;98571.39;135734;1278;22499;-68
2023/04/23 05:17:01;;;;;;;;;;;;;;;12.14;68.79;98567.00;135742;1278;22510;-68
2023/04/23 05:20:04;;;;;;;;;;;;;;;12.34;67.68;98569.90;135726;1278;24420;-67
2023/04/23 05:23:07;;;;;;;;;;;;;;;12.59;66.94;98569.36;135610;1261;22511;-66
2023/04/23 05:26:10;;;;;;;;;;;;;;;12.84;66.38;98567.88;135765;1278;22523;-66
2023/04/23 05:29:18;;;;;;;;;;;;;;;13.14;66.02;98562.79;135789;1278;22516;-66
2023/04/23 05:32:28;;;;;;;;;;;;;;;13.45;64.91;98565.96;135751;1278;22513;-65
2023/04/23 05:35:31;;;;;;;;;;;;;;;13.64;64.86;98565.19;135757;1278;22550;-65
2023/04/23 05:38:34;;;;;;;;;;;;;;;13.89;64.34;98564.30;135744;1278;25367;-67
2023/04/23 05:41:37;;;;;;;;;;;;;;;14.07;63.40;98565.89;135769;1278;22500;-65
2023/04/23 05:44:41;;;;;;;;;;;;;;;14.33;63.62;98565.91;135733;1278;22501;-66
2023/04/23 05:47:44;;;;;;;;;;;;;;;14.61;62.93;98562.58;135680;1278;26434;-65
2023/04/23 05:50:48;;;;;;;;;;;;;;;14.80;61.40;98560.02;135759;1278;22490;-65
2023/04/23 05:53:51;;;;;;;;;;;;;;;14.95;60.70;98561.41;135771;1278;22509;-66
2023/04/23 05:56:54;;;;;;;;;;;;;;;15.16;60.39;98566.59;135745;1278;22636;-65
2023/04/23 05:59:57;;;;;;;;;;;;;;;15.32;59.70;98567.53;135739;1278;22500;-67
2023/04/23 06:03:00;;;;;;;;;;;;;;;15.52;58.60;98566.70;135763;1263;22484;-67
2023/04/23 06:06:03;;;;;;;;;;;;;;;15.74;57.93;98570.84;135755;1278;22530;-65
2023/04/23 06:09:07;;;;;;;;;;;;;;;15.87;57.62;98566.02;135768;1278;22516;-66
2023/04/23 06:12:10;;;;;;;;;;;;;;;16.01;57.13;98565.30;135731;1278;25712;-66
2023/04/23 06:15:13;;;;;;;;;;;;;;;16.22;56.98;98568.23;135756;1278;24579;-66
2023/04/23 06:18:16;;;;;;;;;;;;;;;16.46;56.93;98572.62;135694;1260;22507;-66
2023/04/23 06:21:19;;;;;;;;;;;;;;;16.66;55.61;98572.30;135657;1278;22490;-66
2023/04/23 06:24:22;;;;;;;;;;;;;;;16.82;55.99;98572.20;135745;1279;22525;-66
2023/04/23 06:27:25;;;;;;;;;;;;;;;17.07;55.40;98569.48;135726;1269;22561;-66
2023/04/23 06:30:29;;;;;;;;;;;;;;;17.35;55.45;98568.81;135742;1278;23225;-66
2023/04/23 06:33:31;;;;;;;;;;;;;;;17.62;54.78;98573.38;135684;1278;22515;-66
2023/04/23 06:36:34;;;;;;;;;;;;;;;17.90;54.62;98570.44;135551;1277;22545;-66
2023/04/23 06:39:37;;;;;;;;;;;;;;;18.14;53.17;98564.58;135713;1278;22516;-68
2023/04/23 06:42:40;;;;;;;;;;;;;;;18.39;52.26;98560.49;135681;1264;22507;-66
2023/04/23 06:45:43;;;;;;;;;;;;;;;18.55;51.60;98563.98;135702;1279;22511;-66
2023/04/23 06:48:47;;;;;;;;;;;;;;;18.78;52.21;98561.95;135705;1278;22526;-67
2023/04/23 06:51:50;;;;;;;;;;;;;;;18.98;51.46;98556.77;135740;1278;22646;-66
2023/04/23 06:54:54;;;;;;;;;;;;;;;19.07;50.84;98553.73;135726;1278;22679;-66
2023/04/23 06:57:57;;;;;;;;;;;;;;;19.28;51.27;98551.29;135684;1278;22520;-69
2023/04/23 07:01:00;;;;;;;;;;;;;;;19.57;50.37;98552.57;135669;1278;22508;-67
2023/04/23 07:04:02;;;;;;;;;;;;;;;19.88;49.86;98549.05;135635;1275;22515;-66
2023/04/23 07:07:06;;;;;;;;;;;;;;;20.12;49.12;98549.98;135635;1278;22616;-67
2023/04/23 07:10:10;;;;;;;;;;;;;;;20.33;48.79;98545.29;135637;1278;24047;-67
2023/04/23 07:13:12;;;;;;;;;;;;;;;20.53;48.34;98550.27;135651;1278;22586;-67
2023/04/23 07:16:16;;;;;;;;;;;;;;;20.69;48.40;98551.14;135726;1278;22500;-67
2023/04/23 07:19:18;;;;;;;;;;;;;;;20.81;47.10;98549.28;135719;1278;22524;-68
2023/04/23 07:22:21;;;;;;;;;;;;;;;20.96;46.61;98545.21;135728;1278;22512;-67
2023/04/23 07:25:25;;;;;;;;;;;;;;;21.07;46.85;98540.61;135697;1278;22645;-67
2023/04/23 07:28:29;;;;;;;;;;;;;;;21.29;46.28;98533.41;135663;1278;25414;-67
2023/04/23 07:31:32;;;;;;;;;;;;;;;21.44;46.33;98533.89;135643;1278;22555;-67
2023/04/23 07:34:36;;;;;;;;;;;;;;;21.60;45.41;98530.88;135670;1278;25384;-66
2023/04/23 07:37:39;;;;;;;;;;;;;;;21.84;45.55;98528.58;135689;1278;22505;-69
2023/04/23 07:40:46;;;;;;;;;;;;;;;22.21;44.50;98527.64;135713;1256;22615;-68
2023/04/23 07:43:49;;;;;;;;;;;;;;;22.28;43.61;98524.86;135719;1278;22520;-68
2023/04/23 07:47:09;;;;;;;;;;;;;;;22.41;43.33;98522.55;135713;1278;22493;-67
2023/04/23 07:50:12;;;;;;;;;;;;;;;22.64;43.55;98523.20;135669;1262;22535;-67
2023/04/23 07:53:16;;;;;;;;;;;;;;;22.88;43.23;98519.09;135530;1278;22501;-68
2023/04/23 07:56:23;;;;;;;;;;;;;;;22.96;42.69;98518.07;135709;1279;22514;-67
2023/04/23 07:59:27;;;;;;;;;;;;;;;23.06;42.83;98515.31;135620;1278;22511;-68
2023/04/23 08:02:30;;;;;;;;;;;;;;;23.25;42.45;98516.73;135611;1278;22512;-67
2023/04/23 08:05:36;;;;;;;;;;;;;;;23.27;42.02;98515.73;135584;1278;22491;-70
2023/04/23 08:08:38;;;;;;;;;;;;;;;23.46;41.08;98517.45;135650;1262;22505;-70
2023/04/23 08:11:43;;;;;;;;;;;;;;;23.46;41.39;98517.19;135592;1279;22510;-68
2023/04/23 08:14:49;;;;;;;;;;;;;;;23.63;41.62;98516.75;135607;1278;24285;-67
2023/04/23 08:17:52;;;;;;;;;;;;;;;23.81;41.03;98511.81;135668;1278;22520;-68
2023/04/23 08:20:56;;;;;;;;;;;;;;;23.97;39.93;98510.42;135640;1278;22512;-67
2023/04/23 08:24:03;;;;;;;;;;;;;;;23.96;39.66;98503.86;135652;1278;25191;-67
2023/04/23 08:27:06;;;;;;;;;;;;;;;24.08;39.09;98501.81;135671;1278;22504;-69
2023/04/23 08:30:13;;;;;;;;;;;;;;;24.25;39.65;98495.77;135693;1279;22500;-67
2023/04/23 08:33:15;;;;;;;;;;;;;;;24.39;38.79;98495.30;135648;1278;23927;-69
2023/04/23 08:36:18;;;;;;;;;;;;;;;24.47;38.02;98491.30;135548;1278;22511;-73
2023/04/23 08:39:22;;;;;;;;;;;;;;;24.56;38.07;98488.16;135694;1278;22500;-70
2023/04/23 08:42:26;;;;;;;;;;;;;;;24.73;38.44;98489.70;135587;1278;22515;-66
2023/04/23 08:45:30;;;;;;;;;;;;;;;24.85;38.59;98485.73;135670;1278;22520;-70
2023/04/23 08:48:33;;;;;;;;;;;;;;;25.03;38.48;98483.18;135650;1279;22509;-70
2023/04/23 08:51:37;;;;;;;;;;;;;;;25.27;37.79;98475.70;135654;1278;25316;-69
2023/04/23 08:54:40;;;;;;;;;;;;;;;25.22;37.50;98474.32;135662;1278;22504;-69
2023/04/23 08:57:44;;;;;;;;;;;;;;;25.30;37.68;98472.42;135679;1278;22534;-67
2023/04/23 09:00:51;;;;;;;;;;;;;;;25.53;37.82;98472.50;135660;1278;22504;-68
2023/04/23 09:03:53;;;;;;;;;;;;;;;25.67;36.97;98467.48;135650;1278;22547;-67
2023/04/23 09:06:58;;;;;;;;;;;;;;;25.69;36.86;98460.83;135640;1278;22497;-69
2023/04/23 09:10:01;;;;;;;;;;;;;;;25.68;36.79;98462.62;135628;1278;22515;-69
2023/04/23 09:13:04;;;;;;;;;;;;;;;25.81;36.91;98460.35;135636;1279;25415;-68
2023/04/23 09:16:06;;;;;;;;;;;;;;;25.94;36.57;98459.16;135650;1278;22528;-67
2023/04/23 09:19:10;;;;;;;;;;;;;;;26.07;36.47;98459.85;135655;1278;22539;-70
2023/04/23 09:22:12;;;;;;;;;;;;;;;26.26;36.65;98454.64;135656;1278;22501;-67
2023/04/23 09:25:17;;;;;;;;;;;;;;;26.54;36.10;98452.73;135516;1278;25609;-67
2023/04/23 09:28:20;;;;;;;;;;;;;;;26.62;34.01;98446.27;135684;1278;22516;-68
2023/04/23 09:31:24;;;;;;;;;;;;;;;26.56;34.65;98443.30;135645;1278;22500;-67
2023/04/23 09:34:28;;;;;;;;;;;;;;;26.76;34.85;98445.36;135669;1278;22514;-71
2023/04/23 09:37:31;;;;;;;;;;;;;;;26.81;34.48;98443.63;135639;1279;22577;-72
2023/04/23 09:40:35;;;;;;;;;;;;;;;27.00;33.40;98438.02;135640;1278;22507;-70
2023/04/23 09:43:38;;;;;;;;;;;;;;;26.70;33.08;98431.77;135625;1278;25463;-72
2023/04/23 09:46:42;;;;;;;;;;;;;;;26.84;34.48;98429.79;135687;1278;22516;-71
2023/04/23 09:49:46;;;;;;;;;;;;;;;27.28;33.91;98422.67;135698;1278;22508;-70
2023/04/23 09:52:50;;;;;;;;;;;;;;;27.52;33.84;98420.80;135638;1278;22504;-68
2023/04/23 09:55:53;;;;;;;;;;;;;;;27.38;33.03;98416.86;135578;1278;22533;-68
2023/04/23 09:58:59;;;;;;;;;;;;;;;27.48;32.72;98415.30;135606;1278;22526;-69
2023/04/23 10:02:03;;;;;;;;;;;;;;;27.72;32.58;98406.33;135608;1278;22505;-67
2023/04/23 10:05:14;;;;;;;;;;;;;;;27.78;32.73;98401.44;135661;1278;24233;-67
2023/04/23 10:08:17;;;;;;;;;;;;;;;27.88;31.97;98400.23;135522;1262;22507;-67
2023/04/23 10:11:20;;;;;;;;;;;;;;;27.94;31.61;98395.16;135678;1278;22738;-69
2023/04/23 10:14:25;;;;;;;;;;;;;;;27.69;31.63;98394.28;135649;1278;22685;-67
2023/04/23 10:17:28;;;;;;;;;;;;;;;27.23;31.63;98398.05;135530;1278;22640;-66
2023/04/23 10:20:30;;;;;;;;;;;;;;;26.84;31.35;98392.40;135655;1278;22514;-70
2023/04/23 10:23:34;;;;;;;;;;;;;;;25.95;31.13;98395.88;135652;1278;22515;-68
2023/04/23 10:26:39;;;;;;;;;;;;;;;25.45;32.85;98395.71;135665;1279;22543;-69
2023/04/23 10:29:42;;;;;;;;;;;;;;;25.30;32.46;98392.30;135682;1278;22508;-68
2023/04/23 10:32:45;;;;;;;;;;;;;;;25.91;33.61;98391.28;135472;1279;22491;-67
2023/04/23 10:35:48;;;;;;;;;;;;;;;26.71;32.69;98379.13;135636;1278;22502;-67
2023/04/23 10:38:51;;;;;;;;;;;;;;;26.90;32.04;98377.43;135505;1279;25213;-68
2023/04/23 10:41:53;;;;;;;;;;;;;;;26.49;32.24;98381.33;135538;1279;22506;-67
2023/04/23 10:44:56;;;;;;;;;;;;;;;26.04;32.44;98381.06;135514;1278;22536;-67
2023/04/23 10:48:00;;;;;;;;;;;;;;;25.74;32.65;98378.76;135672;1278;22523;-67
2023/04/23 10:51:02;;;;;;;;;;;;;;;25.77;33.59;98375.63;135651;1279;25462;-67
2023/04/23 10:54:08;;;;;;;;;;;;;;;26.38;33.63;98371.47;135680;1278;22491;-67
2023/04/23 10:57:12;;;;;;;;;;;;;;;26.98;32.99;98371.04;135689;1264;24385;-68
2023/04/23 11:00:15;;;;;;;;;;;;;;;27.40;33.02;98365.81;135682;1279;22503;-67
2023/04/23 11:03:18;;;;;;;;;;;;;;;27.76;32.30;98361.17;135498;1279;22494;-67
2023/04/23 11:06:22;;;;;;;;;;;;;;;27.85;32.11;98363.11;135636;1279;22977;-67
2023/04/23 11:09:25;;;;;;;;;;;;;;;27.55;32.42;98357.55;135591;1278;22522;-68
2023/04/23 11:12:28;;;;;;;;;;;;;;;27.60;32.05;98357.08;135535;1279;22510;-67
2023/04/23 11:15:32;;;;;;;;;;;;;;;27.87;31.84;98353.27;135692;1278;22507;-66
2023/04/23 11:18:34;;;;;;;;;;;;;;;28.09;31.77;98349.50;135665;1278;22501;-69
2023/04/23 11:21:37;;;;;;;;;;;;;;;28.25;31.78;98343.24;135636;1278;22507;-67
2023/04/23 11:24:41;;;;;;;;;;;;;;;28.16;31.33;98342.40;135668;1279;22514;-68
2023/04/23 11:27:44;;;;;;;;;;;;;;;28.34;31.05;98339.48;135660;1278;22532;-68
2023/04/23 11:30:48;;;;;;;;;;;;;;;28.58;31.43;98336.42;135628;1279;22647;-70
2023/04/23 11:33:52;;;;;;;;;;;;;;;28.78;30.33;98333.41;135666;1278;22517;-70
2023/04/23 11:36:55;;;;;;;;;;;;;;;28.92;30.87;98326.88;135655;1278;22498;-68
2023/04/23 11:39:59;;;;;;;;;;;;;;;29.04;29.01;98323.33;135698;1278;22494;-68
2023/04/23 11:43:03;;;;;;;;;;;;;;;28.92;28.49;98317.86;135517;1262;22619;-71
2023/04/23 11:46:06;;;;;;;;;;;;;;;28.94;28.00;98318.13;135686;1278;22524;-70
2023/04/23 11:49:12;;;;;;;;;;;;;;;28.86;27.91;98320.66;135685;1278;22507;-68
2023/04/23 11:52:15;;;;;;;;;;;;;;;28.75;28.39;98315.52;135661;1278;22538;-68
2023/04/23 11:55:19;;;;;;;;;;;;;;;28.60;28.02;98309.00;135515;1278;22520;-68
2023/04/23 11:58:23;;;;;;;;;;;;;;;28.57;28.00;98313.17;135697;1278;22516;-66
2023/04/23 12:01:29;;;;;;;;;;;;;;;28.74;27.87;98315.64;133899;1278;5382267;-68
2023/04/23 12:04:33;;;;;;;;;;;;;;;28.76;27.22;98312.11;135519;1278;22507;-68
2023/04/23 12:07:36;;;;;;;;;;;;;;;28.85;27.90;98309.84;135659;1278;22504;-67
2023/04/23 12:10:40;;;;;;;;;;;;;;;28.89;26.88;98311.29;135668;1278;22510;-68
2023/04/23 12:13:43;;;;;;;;;;;;;;;28.75;25.63;98313.15;135717;1278;22500;-67
2023/04/23 12:16:50;;;;;;;;;;;;;;;28.64;25.67;98310.72;135677;1279;22505;-68
2023/04/23 12:19:55;;;;;;;;;;;;;;;28.50;25.73;98299.95;135663;1279;22511;-67
2023/04/23 12:22:57;;;;;;;;;;;;;;;28.43;26.17;98299.24;135659;1270;22500;-67
2023/04/23 12:26:00;;;;;;;;;;;;;;;28.39;25.52;98293.10;135547;1279;25387;-66
2023/04/23 12:29:04;;;;;;;;;;;;;;;28.33;25.86;98292.66;135716;1278;22500;-69
2023/04/23 12:32:07;;;;;;;;;;;;;;;28.39;25.75;98292.60;135674;1278;22500;-67
2023/04/23 12:35:11;;;;;;;;;;;;;;;28.58;26.44;98294.18;135662;1278;22621;-67
2023/04/23 12:41:52;;;;;;;;;;;;;;;28.90;26.40;98285.74;135631;1278;22503;-66
2023/04/23 12:44:55;;;;;;;;;;;;;;;29.31;26.11;98280.65;135538;1279;22773;-67
2023/04/23 12:47:58;;;;;;;;;;;;;;;29.37;25.20;98278.28;135566;1279;22584;-67
2023/04/23 12:51:03;;;;;;;;;;;;;;;28.94;24.42;98280.39;135627;1260;22627;-67
2023/04/23 12:54:06;;;;;;;;;;;;;;;28.51;25.68;98281.98;135602;1269;22525;-68
2023/04/23 12:57:09;;;;;;;;;;;;;;;28.76;26.18;98275.65;135602;1278;22504;-67
2023/04/23 13:00:12;;;;;;;;;;;;;;;28.99;26.70;98275.05;135581;1278;22501;-71
2023/04/23 13:03:17;;;;;;;;;;;;;;;29.39;25.20;98261.56;135609;1278;22514;-67
2023/04/23 13:06:20;;;;;;;;;;;;;;;29.45;25.39;98258.07;135614;1279;22504;-70
2023/04/23 13:09:28;;;;;;;;;;;;;;;29.30;24.81;98262.42;135620;1278;22502;-67
2023/04/23 13:12:31;;;;;;;;;;;;;;;28.94;24.42;98259.66;135689;1279;22529;-66
2023/04/23 13:15:34;;;;;;;;;;;;;;;28.50;25.35;98259.84;135629;1278;22530;-68
2023/04/23 13:18:37;;;;;;;;;;;;;;;28.61;25.06;98257.66;135639;1278;22514;-68
2023/04/23 13:21:40;;;;;;;;;;;;;;;28.80;25.24;98252.20;135649;1279;22514;-67
2023/04/23 13:24:43;;;;;;;;;;;;;;;28.50;25.51;98249.97;135632;1278;22512;-70
2023/04/23 13:27:47;;;;;;;;;;;;;;;28.11;25.77;98248.68;135560;1278;24410;-67
2023/04/23 13:30:50;;;;;;;;;;;;;;;27.61;26.01;98244.73;135620;1278;25422;-67
2023/04/23 13:33:52;;;;;;;;;;;;;;;27.56;25.94;98239.14;135610;1279;22516;-67
2023/04/23 13:36:55;;;;;;;;;;;;;;;27.19;25.95;98233.04;135572;1275;22511;-67
2023/04/23 13:39:58;;;;;;;;;;;;;;;27.42;26.32;98230.19;135453;1279;25300;-66
2023/04/23 13:43:01;;;;;;;;;;;;;;;28.08;26.25;98234.52;135619;1278;22514;-67
2023/04/23 13:46:04;;;;;;;;;;;;;;;28.39;25.48;98233.98;135608;1273;22504;-67
2023/04/23 13:49:07;;;;;;;;;;;;;;;28.33;25.43;98230.68;135602;1278;22505;-66
2023/04/23 13:52:09;;;;;;;;;;;;;;;28.03;25.98;98227.32;135602;1279;22465;-67
2023/04/23 13:55:12;;;;;;;;;;;;;;;27.62;26.02;98220.81;135579;1279;22511;-67
2023/04/23 13:58:15;;;;;;;;;;;;;;;27.99;26.64;98215.44;135537;1278;22520;-67
2023/04/23 14:01:18;;;;;;;;;;;;;;;28.48;26.08;98210.73;135601;1279;22506;-67
2023/04/23 14:04:22;;;;;;;;;;;;;;;28.66;25.85;98210.47;135524;1278;22519;-68
2023/04/23 14:07:26;;;;;;;;;;;;;;;28.77;25.88;98205.33;135564;1279;22494;-67
2023/04/23 14:10:29;;;;;;;;;;;;;;;29.03;25.92;98197.98;135591;1279;22532;-67
2023/04/23 14:13:33;;;;;;;;;;;;;;;28.84;25.22;98199.96;135545;1279;22508;-67
2023/04/23 14:16:37;;;;;;;;;;;;;;;28.64;25.44;98202.52;135600;1278;25259;-69
2023/04/23 14:19:40;;;;;;;;;;;;;;;28.75;25.56;98197.71;135566;1279;22509;-67
2023/04/23 14:22:44;;;;;;;;;;;;;;;28.87;25.44;98193.08;135658;1279;22504;-72
2023/04/23 14:25:47;;;;;;;;;;;;;;;28.39;25.73;98189.70;135661;1278;22518;-67
2023/04/23 14:28:51;;;;;;;;;;;;;;;27.84;26.18;98190.52;135615;1278;22533;-68
2023/04/23 14:31:54;;;;;;;;;;;;;;;27.91;26.45;98190.97;135572;1279;22510;-67
2023/04/23 14:34:57;;;;;;;;;;;;;;;28.18;26.53;98183.11;135617;1278;22525;-68
2023/04/23 14:38:00;;;;;;;;;;;;;;;28.39;26.34;98179.18;135616;1278;22522;-67
2023/04/23 14:41:03;;;;;;;;;;;;;;;28.58;26.03;98175.11;135629;1278;22528;-67
2023/04/23 14:44:06;;;;;;;;;;;;;;;28.82;26.01;98173.37;135668;1278;22537;-67
2023/04/23 14:47:10;;;;;;;;;;;;;;;28.97;26.27;98174.04;135655;1278;22501;-67
2023/04/23 14:50:13;;;;;;;;;;;;;;;28.95;26.01;98176.98;135704;1279;22523;-69
2023/04/23 14:53:17;;;;;;;;;;;;;;;28.64;26.21;98176.42;135663;1278;25453;-67
2023/04/23 14:56:22;;;;;;;;;;;;;;;28.86;25.90;98172.28;135642;1278;22601;-69
2023/04/23 14:59:24;;;;;;;;;;;;;;;28.75;25.59;98168.04;135663;1260;22534;-68
2023/04/23 15:02:28;;;;;;;;;;;;;;;28.18;25.92;98170.45;135641;1278;22500;-68
2023/04/23 15:05:32;;;;;;;;;;;;;;;27.84;26.25;98174.84;135662;1278;25226;-67
2023/04/23 15:08:35;;;;;;;;;;;;;;;27.97;26.44;98174.95;135653;1278;25294;-67
2023/04/23 15:11:40;;;;;;;;;;;;;;;27.91;26.47;98175.41;135698;1279;22496;-68
2023/04/23 15:14:44;;;;;;;;;;;;;;;27.74;26.52;98173.69;135627;1278;22490;-70
2023/04/23 15:17:47;;;;;;;;;;;;;;;27.35;26.66;98168.52;135674;1278;22514;-66
2023/04/23 15:20:51;;;;;;;;;;;;;;;27.40;26.64;98165.75;135700;1279;22504;-69
2023/04/23 15:23:56;;;;;;;;;;;;;;;27.14;26.70;98163.80;135682;1279;25319;-67
2023/04/23 15:27:00;;;;;;;;;;;;;;;28.08;26.08;98160.34;135669;1279;22517;-69
2023/04/23 15:30:04;;;;;;;;;;;;;;;30.20;24.89;98150.54;135669;1279;22540;-66
2023/04/23 15:33:08;;;;;;;;;;;;;;;32.03;23.83;98151.06;135671;1278;22534;-66
2023/04/23 15:36:10;;;;;;;;;;;;;;;33.57;22.43;98143.20;135653;1279;22455;-67
2023/04/23 15:39:14;;;;;;;;;;;;;;;34.72;21.58;98145.69;135628;1278;22523;-65
2023/04/23 15:42:20;;;;;;;;;;;;;;;34.76;21.39;98141.73;135618;1279;25239;-69
2023/04/23 15:45:23;;;;;;;;;;;;;;;33.15;21.82;98146.09;135600;1278;22527;-67
2023/04/23 15:48:28;;;;;;;;;;;;;;;31.83;22.16;98145.06;135578;1278;22545;-66
2023/04/23 15:51:31;;;;;;;;;;;;;;;32.23;22.38;98141.45;135650;1279;22525;-67